sensor_id;sensor_type;location;lat;lon;timestamp;P1;durP1;ratioP1;P2;durP2;ratioP2
10872;SDS011;34586;53.616;10.032;2023-03-01T00:01:06;8.03;;;4.30;;
10872;SDS011;34586;53.616;10.032;2023-03-01T00:03:36;9.13;;;4.30;;
10872;SDS011;34586;53.616;10.032;2023-03-01T00:06:02;8.43;;;4.27;;
10872;SDS011;34586;53.616;10.032;2023-03-01T00:08:28;8.67;;;4.87;;
10872;SDS011;34586;53.616;10.032;2023-03-01T00:11:01;6.13;;;4.30;;
10872;SDS011;34586;53.616;10.032;2023-03-01T00:13:44;6.90;;;4.03;;
10872;SDS011;34586;53.616;10.032;2023-03-01T00:16:12;7.20;;;4.50;;
10872;SDS011;34586;53.616;10.032;2023-03-01T00:18:40;8.43;;;4.40;;
10872;SDS011;34586;53.616;10.032;2023-03-01T00:21:06;8.00;;;4.47;;
10872;SDS011;34586;53.616;10.032;2023-03-01T00:23:33;8.40;;;4.77;;
10872;SDS011;34586;53.616;10.032;2023-03-01T00:25:59;6.73;;;4.60;;
10872;SDS011;34586;53.616;10.032;2023-03-01T00:28:24;6.17;;;4.60;;
10872;SDS011;34586;53.616;10.032;2023-03-01T00:30:50;4.40;;;3.83;;
10872;SDS011;34586;53.616;10.032;2023-03-01T00:33:15;7.87;;;4.10;;
10872;SDS011;34586;53.616;10.032;2023-03-01T00:35:41;6.57;;;4.00;;
10872;SDS011;34586;53.616;10.032;2023-03-01T00:38:07;8.40;;;4.47;;
10872;SDS011;34586;53.616;10.032;2023-03-01T00:40:33;9.23;;;4.63;;
10872;SDS011;34586;53.616;10.032;2023-03-01T00:43:00;6.57;;;4.53;;
10872;SDS011;34586;53.616;10.032;2023-03-01T00:45:26;7.93;;;4.20;;
10872;SDS011;34586;53.616;10.032;2023-03-01T00:47:53;5.17;;;4.00;;
10872;SDS011;34586;53.616;10.032;2023-03-01T00:50:19;9.13;;;4.50;;
10872;SDS011;34586;53.616;10.032;2023-03-01T00:52:45;9.00;;;4.87;;
10872;SDS011;34586;53.616;10.032;2023-03-01T00:55:11;9.23;;;5.10;;
10872;SDS011;34586;53.616;10.032;2023-03-01T00:57:37;6.83;;;4.27;;
10872;SDS011;34586;53.616;10.032;2023-03-01T01:00:05;6.73;;;3.93;;
10872;SDS011;34586;53.616;10.032;2023-03-01T01:02:32;5.47;;;4.07;;
10872;SDS011;34586;53.616;10.032;2023-03-01T01:04:58;6.83;;;4.17;;
10872;SDS011;34586;53.616;10.032;2023-03-01T01:07:24;7.17;;;4.37;;
10872;SDS011;34586;53.616;10.032;2023-03-01T01:09:50;10.97;;;4.53;;
10872;SDS011;34586;53.616;10.032;2023-03-01T01:12:15;7.70;;;4.40;;
10872;SDS011;34586;53.616;10.032;2023-03-01T01:14:41;6.67;;;3.57;;
10872;SDS011;34586;53.616;10.032;2023-03-01T01:17:07;7.43;;;4.30;;
10872;SDS011;34586;53.616;10.032;2023-03-01T01:19:32;5.87;;;4.40;;
10872;SDS011;34586;53.616;10.032;2023-03-01T01:21:58;6.00;;;3.93;;
10872;SDS011;34586;53.616;10.032;2023-03-01T01:24:23;9.13;;;4.60;;
10872;SDS011;34586;53.616;10.032;2023-03-01T01:26:49;8.77;;;4.40;;
10872;SDS011;34586;53.616;10.032;2023-03-01T01:29:14;6.53;;;4.50;;
10872;SDS011;34586;53.616;10.032;2023-03-01T01:31:41;7.57;;;4.07;;
10872;SDS011;34586;53.616;10.032;2023-03-01T01:34:08;7.23;;;4.53;;
10872;SDS011;34586;53.616;10.032;2023-03-01T01:36:38;6.93;;;4.27;;
10872;SDS011;34586;53.616;10.032;2023-03-01T01:39:04;7.30;;;4.80;;
10872;SDS011;34586;53.616;10.032;2023-03-01T01:41:29;7.73;;;4.40;;
10872;SDS011;34586;53.616;10.032;2023-03-01T01:46:53;5.87;;;3.90;;
10872;SDS011;34586;53.616;10.032;2023-03-01T01:49:35;7.67;;;4.13;;
10872;SDS011;34586;53.616;10.032;2023-03-01T01:54:31;5.97;;;3.83;;
10872;SDS011;34586;53.616;10.032;2023-03-01T01:57:07;5.20;;;4.07;;
10872;SDS011;34586;53.616;10.032;2023-03-01T01:59:35;6.80;;;4.20;;
10872;SDS011;34586;53.616;10.032;2023-03-01T02:02:03;8.67;;;4.13;;
10872;SDS011;34586;53.616;10.032;2023-03-01T02:04:29;6.70;;;3.90;;
10872;SDS011;34586;53.616;10.032;2023-03-01T02:07:05;6.73;;;3.93;;
10872;SDS011;34586;53.616;10.032;2023-03-01T02:09:47;10.83;;;4.70;;
10872;SDS011;34586;53.616;10.032;2023-03-01T02:12:19;5.30;;;3.90;;
10872;SDS011;34586;53.616;10.032;2023-03-01T02:14:48;6.43;;;4.40;;
10872;SDS011;34586;53.616;10.032;2023-03-01T02:17:14;8.37;;;4.20;;
10872;SDS011;34586;53.616;10.032;2023-03-01T02:19:44;4.40;;;3.43;;
10872;SDS011;34586;53.616;10.032;2023-03-01T02:22:20;6.87;;;3.83;;
10872;SDS011;34586;53.616;10.032;2023-03-01T02:27:36;6.67;;;4.00;;
10872;SDS011;34586;53.616;10.032;2023-03-01T02:30:09;7.17;;;4.50;;
10872;SDS011;34586;53.616;10.032;2023-03-01T02:32:37;7.20;;;3.40;;
10872;SDS011;34586;53.616;10.032;2023-03-01T02:35:08;5.80;;;3.50;;
10872;SDS011;34586;53.616;10.032;2023-03-01T02:37:37;5.03;;;3.03;;
10872;SDS011;34586;53.616;10.032;2023-03-01T02:40:05;7.07;;;3.60;;
10872;SDS011;34586;53.616;10.032;2023-03-01T02:42:36;5.70;;;3.70;;
10872;SDS011;34586;53.616;10.032;2023-03-01T02:45:10;5.67;;;3.50;;
10872;SDS011;34586;53.616;10.032;2023-03-01T02:47:36;6.50;;;3.77;;
10872;SDS011;34586;53.616;10.032;2023-03-01T02:50:01;5.33;;;3.70;;
10872;SDS011;34586;53.616;10.032;2023-03-01T02:52:33;8.33;;;4.00;;
10872;SDS011;34586;53.616;10.032;2023-03-01T02:55:09;4.87;;;3.43;;
10872;SDS011;34586;53.616;10.032;2023-03-01T02:57:43;4.97;;;3.87;;
10872;SDS011;34586;53.616;10.032;2023-03-01T03:00:13;5.43;;;3.90;;
10872;SDS011;34586;53.616;10.032;2023-03-01T03:02:46;5.53;;;3.63;;
10872;SDS011;34586;53.616;10.032;2023-03-01T03:05:15;7.00;;;3.90;;
10872;SDS011;34586;53.616;10.032;2023-03-01T03:07:43;7.00;;;4.47;;
10872;SDS011;34586;53.616;10.032;2023-03-01T03:10:14;5.67;;;4.03;;
10872;SDS011;34586;53.616;10.032;2023-03-01T03:12:44;4.03;;;3.47;;
10872;SDS011;34586;53.616;10.032;2023-03-01T03:15:13;5.63;;;4.27;;
10872;SDS011;34586;53.616;10.032;2023-03-01T03:17:40;5.93;;;4.03;;
10872;SDS011;34586;53.616;10.032;2023-03-01T03:20:08;6.13;;;4.07;;
10872;SDS011;34586;53.616;10.032;2023-03-01T03:22:37;5.67;;;3.80;;
10872;SDS011;34586;53.616;10.032;2023-03-01T03:25:05;4.57;;;3.53;;
10872;SDS011;34586;53.616;10.032;2023-03-01T03:27:35;4.53;;;3.67;;
10872;SDS011;34586;53.616;10.032;2023-03-01T03:30:06;4.97;;;3.70;;
10872;SDS011;34586;53.616;10.032;2023-03-01T03:32:37;6.93;;;3.90;;
10872;SDS011;34586;53.616;10.032;2023-03-01T03:35:04;5.30;;;3.60;;
10872;SDS011;34586;53.616;10.032;2023-03-01T03:37:35;5.03;;;4.00;;
10872;SDS011;34586;53.616;10.032;2023-03-01T03:40:23;5.43;;;3.67;;
10872;SDS011;34586;53.616;10.032;2023-03-01T03:42:49;7.20;;;4.33;;
10872;SDS011;34586;53.616;10.032;2023-03-01T03:45:15;8.33;;;4.17;;
10872;SDS011;34586;53.616;10.032;2023-03-01T03:47:42;6.47;;;3.73;;
10872;SDS011;34586;53.616;10.032;2023-03-01T03:50:08;5.60;;;3.40;;
10872;SDS011;34586;53.616;10.032;2023-03-01T03:52:35;4.23;;;3.20;;
10872;SDS011;34586;53.616;10.032;2023-03-01T03:55:00;4.70;;;3.60;;
10872;SDS011;34586;53.616;10.032;2023-03-01T03:57:26;7.33;;;4.03;;
10872;SDS011;34586;53.616;10.032;2023-03-01T03:59:51;5.67;;;3.83;;
10872;SDS011;34586;53.616;10.032;2023-03-01T04:02:17;5.07;;;3.77;;
10872;SDS011;34586;53.616;10.032;2023-03-01T04:04:47;7.10;;;3.70;;
10872;SDS011;34586;53.616;10.032;2023-03-01T04:07:14;4.80;;;4.00;;
10872;SDS011;34586;53.616;10.032;2023-03-01T04:09:41;5.93;;;3.90;;
10872;SDS011;34586;53.616;10.032;2023-03-01T04:12:07;7.37;;;5.13;;
10872;SDS011;34586;53.616;10.032;2023-03-01T04:14:33;9.13;;;5.13;;
10872;SDS011;34586;53.616;10.032;2023-03-01T04:16:59;6.10;;;4.73;;
10872;SDS011;34586;53.616;10.032;2023-03-01T04:19:24;7.07;;;4.40;;
10872;SDS011;34586;53.616;10.032;2023-03-01T04:21:51;9.90;;;4.40;;
10872;SDS011;34586;53.616;10.032;2023-03-01T04:24:17;8.83;;;4.73;;
10872;SDS011;34586;53.616;10.032;2023-03-01T04:26:43;5.30;;;3.97;;
10872;SDS011;34586;53.616;10.032;2023-03-01T04:29:08;5.03;;;3.80;;
10872;SDS011;34586;53.616;10.032;2023-03-01T04:31:35;6.20;;;4.33;;
10872;SDS011;34586;53.616;10.032;2023-03-01T04:34:01;7.50;;;4.63;;
10872;SDS011;34586;53.616;10.032;2023-03-01T04:36:28;8.60;;;4.67;;
10872;SDS011;34586;53.616;10.032;2023-03-01T04:38:54;4.77;;;3.90;;
10872;SDS011;34586;53.616;10.032;2023-03-01T04:41:21;7.53;;;4.40;;
10872;SDS011;34586;53.616;10.032;2023-03-01T04:43:49;7.33;;;4.63;;
10872;SDS011;34586;53.616;10.032;2023-03-01T04:46:16;8.07;;;4.73;;
10872;SDS011;34586;53.616;10.032;2023-03-01T04:48:44;9.10;;;4.20;;
10872;SDS011;34586;53.616;10.032;2023-03-01T04:51:10;6.57;;;4.37;;
10872;SDS011;34586;53.616;10.032;2023-03-01T04:53:38;4.53;;;4.03;;
10872;SDS011;34586;53.616;10.032;2023-03-01T04:56:04;6.03;;;4.30;;
10872;SDS011;34586;53.616;10.032;2023-03-01T04:58:31;9.73;;;4.23;;
10872;SDS011;34586;53.616;10.032;2023-03-01T05:00:56;6.77;;;4.10;;
10872;SDS011;34586;53.616;10.032;2023-03-01T05:03:22;8.40;;;4.73;;
10872;SDS011;34586;53.616;10.032;2023-03-01T05:05:49;6.43;;;4.77;;
10872;SDS011;34586;53.616;10.032;2023-03-01T05:08:16;7.47;;;4.60;;
10872;SDS011;34586;53.616;10.032;2023-03-01T05:10:46;6.60;;;4.37;;
10872;SDS011;34586;53.616;10.032;2023-03-01T05:13:18;5.10;;;4.03;;
10872;SDS011;34586;53.616;10.032;2023-03-01T05:15:48;7.97;;;4.60;;
10872;SDS011;34586;53.616;10.032;2023-03-01T05:18:19;8.73;;;4.77;;
10872;SDS011;34586;53.616;10.032;2023-03-01T05:20:45;6.20;;;4.50;;
10872;SDS011;34586;53.616;10.032;2023-03-01T05:23:12;8.07;;;4.50;;
10872;SDS011;34586;53.616;10.032;2023-03-01T05:25:38;6.90;;;4.20;;
10872;SDS011;34586;53.616;10.032;2023-03-01T05:28:05;7.07;;;4.57;;
10872;SDS011;34586;53.616;10.032;2023-03-01T05:30:32;7.97;;;4.43;;
10872;SDS011;34586;53.616;10.032;2023-03-01T05:32:58;5.83;;;4.53;;
10872;SDS011;34586;53.616;10.032;2023-03-01T05:35:25;4.73;;;3.80;;
10872;SDS011;34586;53.616;10.032;2023-03-01T05:37:51;7.83;;;4.70;;
10872;SDS011;34586;53.616;10.032;2023-03-01T05:40:18;8.27;;;4.13;;
10872;SDS011;34586;53.616;10.032;2023-03-01T05:42:46;9.53;;;4.87;;
10872;SDS011;34586;53.616;10.032;2023-03-01T05:45:13;8.80;;;4.80;;
10872;SDS011;34586;53.616;10.032;2023-03-01T05:47:40;6.63;;;4.60;;
10872;SDS011;34586;53.616;10.032;2023-03-01T05:50:12;10.00;;;5.07;;
10872;SDS011;34586;53.616;10.032;2023-03-01T05:52:49;7.47;;;5.00;;
10872;SDS011;34586;53.616;10.032;2023-03-01T05:55:17;9.53;;;4.80;;
10872;SDS011;34586;53.616;10.032;2023-03-01T05:57:44;7.80;;;4.70;;
10872;SDS011;34586;53.616;10.032;2023-03-01T06:00:10;6.43;;;4.73;;
10872;SDS011;34586;53.616;10.032;2023-03-01T06:02:37;7.17;;;4.93;;
10872;SDS011;34586;53.616;10.032;2023-03-01T06:05:04;9.80;;;5.30;;
10872;SDS011;34586;53.616;10.032;2023-03-01T06:07:31;7.87;;;5.47;;
10872;SDS011;34586;53.616;10.032;2023-03-01T06:09:57;11.00;;;5.63;;
10872;SDS011;34586;53.616;10.032;2023-03-01T06:12:22;8.47;;;5.27;;
10872;SDS011;34586;53.616;10.032;2023-03-01T06:14:48;11.23;;;5.90;;
10872;SDS011;34586;53.616;10.032;2023-03-01T06:17:13;11.90;;;5.87;;
10872;SDS011;34586;53.616;10.032;2023-03-01T06:19:39;10.57;;;5.87;;
10872;SDS011;34586;53.616;10.032;2023-03-01T06:22:05;9.53;;;6.33;;
10872;SDS011;34586;53.616;10.032;2023-03-01T06:24:30;10.00;;;5.90;;
10872;SDS011;34586;53.616;10.032;2023-03-01T06:26:56;10.17;;;5.20;;
10872;SDS011;34586;53.616;10.032;2023-03-01T06:29:22;8.37;;;6.20;;
10872;SDS011;34586;53.616;10.032;2023-03-01T06:31:48;10.17;;;6.00;;
10872;SDS011;34586;53.616;10.032;2023-03-01T06:34:14;7.90;;;5.50;;
10872;SDS011;34586;53.616;10.032;2023-03-01T06:36:40;11.97;;;5.63;;
10872;SDS011;34586;53.616;10.032;2023-03-01T06:39:05;9.10;;;6.10;;
10872;SDS011;34586;53.616;10.032;2023-03-01T06:41:31;8.67;;;6.00;;
10872;SDS011;34586;53.616;10.032;2023-03-01T06:43:58;10.17;;;6.17;;
10872;SDS011;34586;53.616;10.032;2023-03-01T06:46:24;10.47;;;5.97;;
10872;SDS011;34586;53.616;10.032;2023-03-01T06:48:50;10.10;;;6.27;;
10872;SDS011;34586;53.616;10.032;2023-03-01T06:51:16;8.50;;;6.17;;
10872;SDS011;34586;53.616;10.032;2023-03-01T06:53:41;12.07;;;6.53;;
10872;SDS011;34586;53.616;10.032;2023-03-01T06:56:07;10.13;;;6.27;;
10872;SDS011;34586;53.616;10.032;2023-03-01T06:58:32;9.23;;;6.13;;
10872;SDS011;34586;53.616;10.032;2023-03-01T07:00:58;10.07;;;5.87;;
10872;SDS011;34586;53.616;10.032;2023-03-01T07:03:24;11.43;;;6.20;;
10872;SDS011;34586;53.616;10.032;2023-03-01T07:05:50;9.10;;;6.83;;
10872;SDS011;34586;53.616;10.032;2023-03-01T07:08:19;9.53;;;6.50;;
10872;SDS011;34586;53.616;10.032;2023-03-01T07:10:45;12.27;;;6.43;;
10872;SDS011;34586;53.616;10.032;2023-03-01T07:13:10;8.53;;;6.17;;
10872;SDS011;34586;53.616;10.032;2023-03-01T07:15:36;10.70;;;6.50;;
10872;SDS011;34586;53.616;10.032;2023-03-01T07:18:01;10.73;;;5.70;;
10872;SDS011;34586;53.616;10.032;2023-03-01T07:20:27;9.97;;;5.87;;
10872;SDS011;34586;53.616;10.032;2023-03-01T07:22:53;9.90;;;5.57;;
10872;SDS011;34586;53.616;10.032;2023-03-01T07:25:20;10.50;;;5.90;;
10872;SDS011;34586;53.616;10.032;2023-03-01T07:27:52;9.30;;;6.10;;
10872;SDS011;34586;53.616;10.032;2023-03-01T07:30:18;9.93;;;6.27;;
10872;SDS011;34586;53.616;10.032;2023-03-01T07:32:45;11.73;;;6.00;;
10872;SDS011;34586;53.616;10.032;2023-03-01T07:35:11;9.63;;;6.13;;
10872;SDS011;34586;53.616;10.032;2023-03-01T07:37:37;8.90;;;6.60;;
10872;SDS011;34586;53.616;10.032;2023-03-01T07:40:02;8.87;;;5.90;;
10872;SDS011;34586;53.616;10.032;2023-03-01T07:42:28;9.40;;;6.30;;
10872;SDS011;34586;53.616;10.032;2023-03-01T07:44:54;11.57;;;7.30;;
10872;SDS011;34586;53.616;10.032;2023-03-01T07:47:19;14.57;;;8.10;;
10872;SDS011;34586;53.616;10.032;2023-03-01T07:49:45;10.60;;;8.17;;
10872;SDS011;34586;53.616;10.032;2023-03-01T07:52:11;8.83;;;7.03;;
10872;SDS011;34586;53.616;10.032;2023-03-01T07:54:37;13.80;;;8.07;;
10872;SDS011;34586;53.616;10.032;2023-03-01T07:57:03;13.57;;;9.00;;
10872;SDS011;34586;53.616;10.032;2023-03-01T07:59:28;11.67;;;9.10;;
10872;SDS011;34586;53.616;10.032;2023-03-01T08:01:57;15.17;;;9.50;;
10872;SDS011;34586;53.616;10.032;2023-03-01T08:04:23;12.60;;;9.60;;
10872;SDS011;34586;53.616;10.032;2023-03-01T08:06:50;12.63;;;9.60;;
10872;SDS011;34586;53.616;10.032;2023-03-01T08:09:16;10.90;;;9.00;;
10872;SDS011;34586;53.616;10.032;2023-03-01T08:11:41;14.80;;;9.90;;
10872;SDS011;34586;53.616;10.032;2023-03-01T08:14:07;12.83;;;9.17;;
10872;SDS011;34586;53.616;10.032;2023-03-01T08:16:33;13.03;;;9.37;;
10872;SDS011;34586;53.616;10.032;2023-03-01T08:19:03;12.13;;;9.17;;
10872;SDS011;34586;53.616;10.032;2023-03-01T08:21:33;13.27;;;9.73;;
10872;SDS011;34586;53.616;10.032;2023-03-01T08:24:00;12.87;;;9.47;;
10872;SDS011;34586;53.616;10.032;2023-03-01T08:26:26;12.07;;;9.13;;
10872;SDS011;34586;53.616;10.032;2023-03-01T08:28:52;13.27;;;9.53;;
10872;SDS011;34586;53.616;10.032;2023-03-01T08:31:22;12.70;;;9.90;;
10872;SDS011;34586;53.616;10.032;2023-03-01T08:33:54;15.43;;;10.23;;
10872;SDS011;34586;53.616;10.032;2023-03-01T08:36:25;15.87;;;11.27;;
10872;SDS011;34586;53.616;10.032;2023-03-01T08:38:53;13.03;;;11.07;;
10872;SDS011;34586;53.616;10.032;2023-03-01T08:41:19;17.60;;;11.53;;
10872;SDS011;34586;53.616;10.032;2023-03-01T08:43:44;13.00;;;10.53;;
10872;SDS011;34586;53.616;10.032;2023-03-01T08:46:10;13.77;;;10.90;;
10872;SDS011;34586;53.616;10.032;2023-03-01T08:48:37;13.87;;;10.73;;
10872;SDS011;34586;53.616;10.032;2023-03-01T08:51:18;14.53;;;10.73;;
10872;SDS011;34586;53.616;10.032;2023-03-01T08:53:45;13.27;;;10.43;;
10872;SDS011;34586;53.616;10.032;2023-03-01T08:56:11;14.03;;;10.63;;
10872;SDS011;34586;53.616;10.032;2023-03-01T08:58:37;13.60;;;10.30;;
10872;SDS011;34586;53.616;10.032;2023-03-01T09:01:08;13.63;;;10.80;;
10872;SDS011;34586;53.616;10.032;2023-03-01T09:03:38;13.17;;;11.33;;
10872;SDS011;34586;53.616;10.032;2023-03-01T09:06:04;14.13;;;11.20;;
10872;SDS011;34586;53.616;10.032;2023-03-01T09:08:34;15.10;;;11.70;;
10872;SDS011;34586;53.616;10.032;2023-03-01T09:11:04;15.83;;;11.30;;
10872;SDS011;34586;53.616;10.032;2023-03-01T09:13:30;14.37;;;11.87;;
10872;SDS011;34586;53.616;10.032;2023-03-01T09:15:57;15.33;;;11.03;;
10872;SDS011;34586;53.616;10.032;2023-03-01T09:18:23;16.10;;;12.10;;
10872;SDS011;34586;53.616;10.032;2023-03-01T09:20:49;14.63;;;11.17;;
10872;SDS011;34586;53.616;10.032;2023-03-01T09:23:14;18.13;;;12.97;;
10872;SDS011;34586;53.616;10.032;2023-03-01T09:25:40;13.53;;;11.87;;
10872;SDS011;34586;53.616;10.032;2023-03-01T09:28:06;16.70;;;12.57;;
10872;SDS011;34586;53.616;10.032;2023-03-01T09:30:31;13.30;;;11.70;;
10872;SDS011;34586;53.616;10.032;2023-03-01T09:32:57;14.60;;;11.70;;
10872;SDS011;34586;53.616;10.032;2023-03-01T09:35:23;13.17;;;11.77;;
10872;SDS011;34586;53.616;10.032;2023-03-01T09:37:49;14.07;;;11.50;;
10872;SDS011;34586;53.616;10.032;2023-03-01T09:40:21;14.00;;;11.17;;
10872;SDS011;34586;53.616;10.032;2023-03-01T09:43:06;13.47;;;11.53;;
10872;SDS011;34586;53.616;10.032;2023-03-01T09:45:58;16.23;;;11.73;;
10872;SDS011;34586;53.616;10.032;2023-03-01T09:48:28;13.63;;;10.67;;
10872;SDS011;34586;53.616;10.032;2023-03-01T09:51:01;15.60;;;11.20;;
10872;SDS011;34586;53.616;10.032;2023-03-01T09:53:33;13.87;;;11.27;;
10872;SDS011;34586;53.616;10.032;2023-03-01T09:59:04;14.33;;;10.50;;
10872;SDS011;34586;53.616;10.032;2023-03-01T10:04:51;12.23;;;10.43;;
10872;SDS011;34586;53.616;10.032;2023-03-01T10:10:46;14.60;;;10.13;;
10872;SDS011;34586;53.616;10.032;2023-03-01T10:13:20;14.83;;;10.87;;
10872;SDS011;34586;53.616;10.032;2023-03-01T10:15:51;16.70;;;11.03;;
10872;SDS011;34586;53.616;10.032;2023-03-01T10:18:25;13.67;;;10.00;;
10872;SDS011;34586;53.616;10.032;2023-03-01T10:21:01;11.80;;;8.67;;
10872;SDS011;34586;53.616;10.032;2023-03-01T10:23:31;15.80;;;9.37;;
10872;SDS011;34586;53.616;10.032;2023-03-01T10:31:09;13.30;;;10.93;;
10872;SDS011;34586;53.616;10.032;2023-03-01T10:33:43;12.57;;;9.43;;
10872;SDS011;34586;53.616;10.032;2023-03-01T10:36:09;11.87;;;9.20;;
10872;SDS011;34586;53.616;10.032;2023-03-01T10:38:56;12.60;;;9.93;;
10872;SDS011;34586;53.616;10.032;2023-03-01T10:41:23;10.90;;;8.73;;
10872;SDS011;34586;53.616;10.032;2023-03-01T10:43:51;14.57;;;9.17;;
10872;SDS011;34586;53.616;10.032;2023-03-01T10:46:36;12.03;;;9.13;;
10872;SDS011;34586;53.616;10.032;2023-03-01T10:49:06;9.87;;;8.87;;
10872;SDS011;34586;53.616;10.032;2023-03-01T10:51:32;13.77;;;9.93;;
10872;SDS011;34586;53.616;10.032;2023-03-01T10:53:58;13.03;;;10.10;;
10872;SDS011;34586;53.616;10.032;2023-03-01T10:56:23;10.77;;;8.53;;
10872;SDS011;34586;53.616;10.032;2023-03-01T10:59:00;14.67;;;9.73;;
10872;SDS011;34586;53.616;10.032;2023-03-01T11:01:31;11.70;;;9.63;;
10872;SDS011;34586;53.616;10.032;2023-03-01T11:04:07;10.30;;;8.77;;
10872;SDS011;34586;53.616;10.032;2023-03-01T11:06:37;11.90;;;9.60;;
10872;SDS011;34586;53.616;10.032;2023-03-01T11:09:15;14.20;;;10.17;;
10872;SDS011;34586;53.616;10.032;2023-03-01T11:11:55;13.47;;;10.10;;
10872;SDS011;34586;53.616;10.032;2023-03-01T11:14:22;12.37;;;9.70;;
10872;SDS011;34586;53.616;10.032;2023-03-01T11:17:00;14.17;;;9.63;;
10872;SDS011;34586;53.616;10.032;2023-03-01T11:19:29;13.47;;;10.27;;
10872;SDS011;34586;53.616;10.032;2023-03-01T11:22:01;13.37;;;10.07;;
10872;SDS011;34586;53.616;10.032;2023-03-01T11:24:30;12.07;;;8.73;;
10872;SDS011;34586;53.616;10.032;2023-03-01T11:29:44;9.73;;;8.77;;
10872;SDS011;34586;53.616;10.032;2023-03-01T11:32:16;9.97;;;8.37;;
10872;SDS011;34586;53.616;10.032;2023-03-01T11:37:32;11.03;;;8.20;;
10872;SDS011;34586;53.616;10.032;2023-03-01T11:45:51;9.00;;;6.90;;
10872;SDS011;34586;53.616;10.032;2023-03-01T11:49:25;7.83;;;6.97;;
10872;SDS011;34586;53.616;10.032;2023-03-01T11:54:47;7.70;;;6.83;;
10872;SDS011;34586;53.616;10.032;2023-03-01T12:00:19;7.43;;;5.70;;
10872;SDS011;34586;53.616;10.032;2023-03-01T12:08:25;6.37;;;5.73;;
10872;SDS011;34586;53.616;10.032;2023-03-01T12:19:19;6.37;;;5.17;;
10872;SDS011;34586;53.616;10.032;2023-03-01T12:36:20;10.07;;;6.33;;
10872;SDS011;34586;53.616;10.032;2023-03-01T12:50:59;8.07;;;5.50;;
10872;SDS011;34586;53.616;10.032;2023-03-01T12:53:05;6.60;;;5.70;;
10872;SDS011;34586;53.616;10.032;2023-03-01T12:55:39;6.67;;;5.90;;
10872;SDS011;34586;53.616;10.032;2023-03-01T12:58:11;6.63;;;5.80;;
10872;SDS011;34586;53.616;10.032;2023-03-01T13:03:48;6.03;;;5.47;;
10872;SDS011;34586;53.616;10.032;2023-03-01T13:12:00;8.13;;;6.83;;
10872;SDS011;34586;53.616;10.032;2023-03-01T13:16:57;7.73;;;6.40;;
10872;SDS011;34586;53.616;10.032;2023-03-01T13:19:27;6.30;;;5.67;;
10872;SDS011;34586;53.616;10.032;2023-03-01T13:21:57;6.73;;;6.03;;
10872;SDS011;34586;53.616;10.032;2023-03-01T13:27:21;7.87;;;5.63;;
10872;SDS011;34586;53.616;10.032;2023-03-01T13:29:57;10.13;;;5.70;;
10872;SDS011;34586;53.616;10.032;2023-03-01T13:37:28;7.57;;;5.33;;
10872;SDS011;34586;53.616;10.032;2023-03-01T13:39:56;5.90;;;5.37;;
10872;SDS011;34586;53.616;10.032;2023-03-01T13:45:23;5.60;;;5.10;;
10872;SDS011;34586;53.616;10.032;2023-03-01T13:48:15;8.47;;;5.43;;
10872;SDS011;34586;53.616;10.032;2023-03-01T13:50:50;5.87;;;5.27;;
10872;SDS011;34586;53.616;10.032;2023-03-01T13:53:21;6.40;;;4.97;;
10872;SDS011;34586;53.616;10.032;2023-03-01T13:55:50;5.03;;;4.63;;
10872;SDS011;34586;53.616;10.032;2023-03-01T13:58:24;6.53;;;4.77;;
10872;SDS011;34586;53.616;10.032;2023-03-01T14:03:26;4.73;;;4.17;;
10872;SDS011;34586;53.616;10.032;2023-03-01T14:06:08;5.13;;;3.97;;
10872;SDS011;34586;53.616;10.032;2023-03-01T14:08:38;4.80;;;4.20;;
10872;SDS011;34586;53.616;10.032;2023-03-01T14:16:52;4.50;;;4.10;;
10872;SDS011;34586;53.616;10.032;2023-03-01T14:19:39;4.73;;;4.20;;
10872;SDS011;34586;53.616;10.032;2023-03-01T14:22:15;5.10;;;4.37;;
10872;SDS011;34586;53.616;10.032;2023-03-01T14:27:16;4.60;;;3.87;;
10872;SDS011;34586;53.616;10.032;2023-03-01T14:29:42;4.37;;;3.80;;
10872;SDS011;34586;53.616;10.032;2023-03-01T14:32:18;5.57;;;4.10;;
10872;SDS011;34586;53.616;10.032;2023-03-01T14:34:48;5.93;;;4.33;;
10872;SDS011;34586;53.616;10.032;2023-03-01T14:39:50;3.80;;;3.50;;
10872;SDS011;34586;53.616;10.032;2023-03-01T14:42:17;5.57;;;4.07;;
10872;SDS011;34586;53.616;10.032;2023-03-01T14:44:45;4.93;;;3.90;;
10872;SDS011;34586;53.616;10.032;2023-03-01T14:47:14;4.50;;;3.87;;
10872;SDS011;34586;53.616;10.032;2023-03-01T14:49:44;4.23;;;3.83;;
10872;SDS011;34586;53.616;10.032;2023-03-01T14:52:31;4.57;;;3.77;;
10872;SDS011;34586;53.616;10.032;2023-03-01T14:55:20;4.53;;;4.00;;
10872;SDS011;34586;53.616;10.032;2023-03-01T14:58:09;6.80;;;4.30;;
10872;SDS011;34586;53.616;10.032;2023-03-01T15:00:38;4.90;;;4.30;;
10872;SDS011;34586;53.616;10.032;2023-03-01T15:03:11;6.77;;;4.83;;
10872;SDS011;34586;53.616;10.032;2023-03-01T15:05:42;6.57;;;4.43;;
10872;SDS011;34586;53.616;10.032;2023-03-01T15:08:14;4.13;;;3.70;;
10872;SDS011;34586;53.616;10.032;2023-03-01T15:10:58;4.50;;;3.60;;
10872;SDS011;34586;53.616;10.032;2023-03-01T15:13:43;4.63;;;4.13;;
10872;SDS011;34586;53.616;10.032;2023-03-01T15:16:30;4.17;;;3.63;;
10872;SDS011;34586;53.616;10.032;2023-03-01T15:18:58;4.40;;;4.10;;
10872;SDS011;34586;53.616;10.032;2023-03-01T15:21:27;4.07;;;3.73;;
10872;SDS011;34586;53.616;10.032;2023-03-01T15:24:00;4.27;;;3.87;;
10872;SDS011;34586;53.616;10.032;2023-03-01T15:26:40;4.30;;;3.90;;
10872;SDS011;34586;53.616;10.032;2023-03-01T15:29:15;4.63;;;3.73;;
10872;SDS011;34586;53.616;10.032;2023-03-01T15:31:52;4.87;;;4.20;;
10872;SDS011;34586;53.616;10.032;2023-03-01T15:36:47;4.60;;;4.20;;
10872;SDS011;34586;53.616;10.032;2023-03-01T15:41:58;4.23;;;3.80;;
10872;SDS011;34586;53.616;10.032;2023-03-01T15:44:28;4.40;;;4.00;;
10872;SDS011;34586;53.616;10.032;2023-03-01T15:46:55;5.30;;;4.50;;
10872;SDS011;34586;53.616;10.032;2023-03-01T15:52:00;4.50;;;3.43;;
10872;SDS011;34586;53.616;10.032;2023-03-01T15:54:26;4.50;;;3.93;;
10872;SDS011;34586;53.616;10.032;2023-03-01T15:56:52;4.00;;;3.70;;
10872;SDS011;34586;53.616;10.032;2023-03-01T15:59:18;4.10;;;3.27;;
10872;SDS011;34586;53.616;10.032;2023-03-01T16:01:44;4.03;;;3.63;;
10872;SDS011;34586;53.616;10.032;2023-03-01T16:04:14;3.40;;;3.10;;
10872;SDS011;34586;53.616;10.032;2023-03-01T16:06:51;3.63;;;3.23;;
10872;SDS011;34586;53.616;10.032;2023-03-01T16:09:22;5.10;;;3.50;;
10872;SDS011;34586;53.616;10.032;2023-03-01T16:11:48;4.50;;;3.80;;
10872;SDS011;34586;53.616;10.032;2023-03-01T16:14:15;6.17;;;4.53;;
10872;SDS011;34586;53.616;10.032;2023-03-01T16:16:41;6.87;;;4.97;;
10872;SDS011;34586;53.616;10.032;2023-03-01T16:19:07;6.47;;;5.27;;
10872;SDS011;34586;53.616;10.032;2023-03-01T16:21:33;6.90;;;5.90;;
10872;SDS011;34586;53.616;10.032;2023-03-01T16:23:58;6.83;;;5.73;;
10872;SDS011;34586;53.616;10.032;2023-03-01T16:26:24;7.13;;;6.43;;
10872;SDS011;34586;53.616;10.032;2023-03-01T16:28:49;9.90;;;7.70;;
10872;SDS011;34586;53.616;10.032;2023-03-01T16:31:20;9.40;;;7.83;;
10872;SDS011;34586;53.616;10.032;2023-03-01T16:33:46;12.27;;;9.70;;
10872;SDS011;34586;53.616;10.032;2023-03-01T16:36:14;11.93;;;9.93;;
10872;SDS011;34586;53.616;10.032;2023-03-01T16:38:42;11.73;;;9.57;;
10872;SDS011;34586;53.616;10.032;2023-03-01T16:41:11;13.07;;;9.97;;
10872;SDS011;34586;53.616;10.032;2023-03-01T16:43:41;11.23;;;9.30;;